createdAt,value
2022-08-19T00:00:31.802Z,19.22222222222223
2022-08-19T00:01:31.662Z,19.22222222222223
2022-08-19T00:02:31.683Z,19.22222222222223
2022-08-19T00:03:31.657Z,19.22222222222223
2022-08-19T00:04:31.741Z,19.22222222222223
2022-08-19T00:05:31.673Z,19.22222222222223
2022-08-19T00:06:31.715Z,19.22222222222223
2022-08-19T00:07:31.686Z,19.22222222222223
2022-08-19T00:08:31.666Z,19.22222222222223
2022-08-19T00:09:31.665Z,19.22222222222223
2022-08-19T00:10:31.719Z,19.22222222222223
2022-08-19T00:11:31.649Z,19.22222222222223
2022-08-19T00:12:31.673Z,19.22222222222223
2022-08-19T00:13:31.670Z,19.22222222222223
2022-08-19T00:14:31.658Z,19.22222222222223
2022-08-19T00:15:31.655Z,19.22222222222223
2022-08-19T00:16:31.667Z,19.22222222222223
2022-08-19T00:17:31.677Z,19.27777777777783
2022-08-19T00:18:31.654Z,19.27777777777783
2022-08-19T00:19:31.658Z,19.27777777777783
2022-08-19T00:20:31.685Z,19.27777777777783
2022-08-19T00:21:31.675Z,19.22222222222223
2022-08-19T00:22:31.650Z,19.22222222222223
2022-08-19T00:23:31.677Z,19.22222222222223
2022-08-19T00:24:31.643Z,19.22222222222223
2022-08-19T00:25:31.671Z,19.22222222222223
2022-08-19T00:26:31.673Z,19.22222222222223
2022-08-19T00:27:31.667Z,19.22222222222223
2022-08-19T00:28:31.660Z,19.22222222222223
2022-08-19T00:29:31.667Z,19.22222222222223
2022-08-19T00:30:31.652Z,19.22222222222223
2022-08-19T00:31:31.655Z,19.22222222222223
2022-08-19T00:32:31.654Z,19.22222222222223
2022-08-19T00:33:31.677Z,19.22222222222223
2022-08-19T00:34:31.670Z,19.22222222222223
2022-08-19T00:35:31.671Z,19.22222222222223
2022-08-19T00:36:31.691Z,19.22222222222223
2022-08-19T00:37:31.651Z,19.22222222222223
2022-08-19T00:38:37.353Z,19.22222222222223
2022-08-19T00:39:31.732Z,19.22222222222223
2022-08-19T00:40:31.649Z,19.22222222222223
2022-08-19T00:41:31.668Z,19.22222222222223
2022-08-19T00:42:31.664Z,19.22222222222223
2022-08-19T00:43:31.656Z,19.22222222222223
2022-08-19T00:44:31.644Z,19.22222222222223
2022-08-19T00:45:31.690Z,19.22222222222223
2022-08-19T00:46:31.672Z,19.27777777777783
2022-08-19T00:47:31.672Z,19.27777777777783
2022-08-19T00:48:31.660Z,19.27777777777783
2022-08-19T00:49:31.682Z,19.27777777777783
2022-08-19T00:50:31.670Z,19.27777777777783
2022-08-19T00:51:31.686Z,19.27777777777783
2022-08-19T00:52:31.658Z,19.27777777777783
2022-08-19T00:53:31.689Z,19.27777777777783
2022-08-19T00:54:31.713Z,19.27777777777783
2022-08-19T00:55:31.722Z,19.27777777777783
2022-08-19T00:56:31.635Z,19.27777777777783
2022-08-19T00:57:31.671Z,19.38888888888897
2022-08-19T00:58:31.679Z,19.38888888888897
2022-08-19T00:59:56.278Z,19.38888888888897
2022-08-19T01:00:31.709Z,19.38888888888897
2022-08-19T01:01:31.720Z,19.38888888888897
2022-08-19T01:02:31.694Z,19.38888888888897
2022-08-19T01:03:57.088Z,19.38888888888897
2022-08-19T01:04:31.872Z,19.38888888888897
2022-08-19T01:05:31.690Z,19.38888888888897
2022-08-19T01:06:31.691Z,19.38888888888897
2022-08-19T01:07:37.589Z,19.38888888888897
2022-08-19T01:08:31.687Z,19.38888888888897
2022-08-19T01:09:31.710Z,19.5
2022-08-19T01:10:36.098Z,19.5
2022-08-19T01:11:31.686Z,19.5
2022-08-19T01:12:31.677Z,19.5
2022-08-19T01:13:44.540Z,19.5
2022-08-19T01:14:31.706Z,19.5
2022-08-19T01:15:31.709Z,19.5
2022-08-19T01:16:31.683Z,19.5
2022-08-19T01:17:31.697Z,19.611111111111143
2022-08-19T01:18:31.686Z,19.611111111111143
2022-08-19T01:19:31.671Z,19.611111111111143
2022-08-19T01:20:31.660Z,19.611111111111143
2022-08-19T01:21:31.767Z,19.611111111111143
2022-08-19T01:22:33.732Z,19.611111111111143
2022-08-19T01:23:31.703Z,19.611111111111143
2022-08-19T01:24:31.720Z,19.611111111111143
2022-08-19T01:25:31.631Z,19.611111111111143
2022-08-19T01:26:31.681Z,19.611111111111143
2022-08-19T01:27:39.499Z,19.611111111111143
2022-08-19T01:28:33.966Z,19.611111111111143
2022-08-19T01:29:31.659Z,19.611111111111143
2022-08-19T01:30:31.794Z,19.611111111111143
2022-08-19T01:31:32.864Z,19.611111111111143
2022-08-19T01:32:33.683Z,19.611111111111143
2022-08-19T01:33:31.665Z,19.611111111111143
2022-08-19T01:34:31.692Z,19.722222222222285
2022-08-19T01:35:31.679Z,19.722222222222285
2022-08-19T01:36:31.742Z,19.722222222222285
2022-08-19T01:37:31.843Z,19.722222222222285
2022-08-19T01:38:31.672Z,19.722222222222285
2022-08-19T01:39:31.771Z,19.722222222222285
2022-08-19T01:40:31.881Z,19.722222222222285
2022-08-19T01:41:31.815Z,19.722222222222285
2022-08-19T01:42:31.873Z,19.722222222222285
2022-08-19T01:43:31.853Z,19.722222222222285
2022-08-19T01:44:31.855Z,19.722222222222285
2022-08-19T01:45:31.792Z,19.722222222222285
2022-08-19T01:46:31.873Z,19.722222222222285
2022-08-19T01:47:31.836Z,19.722222222222285
2022-08-19T01:48:31.825Z,19.722222222222285
2022-08-19T01:49:31.671Z,19.722222222222285
2022-08-19T01:50:31.707Z,19.77777777777783
2022-08-19T01:51:31.685Z,19.77777777777783
2022-08-19T01:52:31.691Z,19.77777777777783
2022-08-19T01:53:33.743Z,19.77777777777783
2022-08-19T01:54:31.805Z,19.77777777777783
2022-08-19T01:55:31.675Z,19.77777777777783
2022-08-19T01:56:31.890Z,19.77777777777783
2022-08-19T01:57:31.677Z,19.722222222222285
2022-08-19T01:58:31.734Z,19.722222222222285
2022-08-19T01:59:31.693Z,19.722222222222285
2022-08-19T02:00:31.693Z,19.722222222222285
2022-08-19T02:01:31.682Z,19.722222222222285
2022-08-19T02:02:31.699Z,19.722222222222285
2022-08-19T02:03:31.689Z,19.722222222222285
2022-08-19T02:04:31.680Z,19.722222222222285
2022-08-19T02:05:31.666Z,19.722222222222285
2022-08-19T02:06:31.679Z,19.722222222222285
2022-08-19T02:07:31.705Z,19.722222222222285
2022-08-19T02:08:31.711Z,19.722222222222285
2022-08-19T02:09:31.678Z,19.611111111111143
2022-08-19T02:10:31.694Z,19.611111111111143
2022-08-19T02:11:31.679Z,19.611111111111143
2022-08-19T02:12:31.672Z,19.611111111111143
2022-08-19T02:13:31.651Z,19.611111111111143
2022-08-19T02:14:31.682Z,19.611111111111143
2022-08-19T02:15:31.684Z,19.722222222222285
2022-08-19T02:16:31.700Z,19.722222222222285
2022-08-19T02:17:31.665Z,19.722222222222285
2022-08-19T02:18:31.673Z,19.722222222222285
2022-08-19T02:19:31.663Z,19.722222222222285
2022-08-19T02:20:31.692Z,19.722222222222285
2022-08-19T02:21:31.649Z,19.722222222222285
2022-08-19T02:22:31.775Z,19.722222222222285
2022-08-19T02:23:31.674Z,19.722222222222285
2022-08-19T02:24:31.766Z,19.722222222222285
2022-08-19T02:25:31.645Z,19.722222222222285
2022-08-19T02:26:31.693Z,19.722222222222285
2022-08-19T02:27:31.685Z,19.722222222222285
2022-08-19T02:28:31.667Z,19.77777777777783
2022-08-19T02:29:31.689Z,19.77777777777783
2022-08-19T02:30:31.670Z,19.77777777777783
2022-08-19T02:31:31.691Z,19.77777777777783
2022-08-19T02:32:31.668Z,19.77777777777783
2022-08-19T02:33:31.640Z,19.77777777777783
2022-08-19T02:34:31.662Z,19.722222222222285
2022-08-19T02:35:31.679Z,19.722222222222285
2022-08-19T02:36:31.702Z,19.722222222222285
2022-08-19T02:37:31.733Z,19.722222222222285
2022-08-19T02:38:31.707Z,19.722222222222285
2022-08-19T02:39:31.760Z,19.722222222222285
2022-08-19T02:40:31.695Z,19.722222222222285
2022-08-19T02:41:31.657Z,19.722222222222285
2022-08-19T02:42:31.688Z,19.722222222222285
2022-08-19T02:43:33.917Z,19.722222222222285
2022-08-19T02:44:32.065Z,19.722222222222285
2022-08-19T02:45:31.659Z,19.722222222222285
2022-08-19T02:46:31.679Z,19.722222222222285
2022-08-19T02:47:31.847Z,19.722222222222285
2022-08-19T02:48:31.670Z,19.722222222222285
2022-08-19T02:49:34.704Z,19.722222222222285
2022-08-19T02:50:31.669Z,19.722222222222285
2022-08-19T02:51:31.660Z,19.722222222222285
2022-08-19T02:52:31.654Z,19.722222222222285
2022-08-19T02:53:31.670Z,19.722222222222285
2022-08-19T02:54:31.692Z,19.722222222222285
2022-08-19T02:55:31.664Z,19.77777777777783
2022-08-19T02:56:31.697Z,19.77777777777783
2022-08-19T02:57:31.668Z,19.77777777777783
2022-08-19T02:58:31.707Z,19.77777777777783
2022-08-19T02:59:31.654Z,19.77777777777783
2022-08-19T03:00:31.679Z,19.77777777777783
2022-08-19T03:01:31.704Z,19.77777777777783
2022-08-19T03:02:31.872Z,19.722222222222285
2022-08-19T03:03:31.778Z,19.722222222222285
2022-08-19T03:04:31.692Z,19.722222222222285
2022-08-19T03:05:56.057Z,19.722222222222285
2022-08-19T03:06:31.743Z,19.722222222222285
2022-08-19T03:07:31.675Z,19.722222222222285
2022-08-19T03:08:31.689Z,19.722222222222285
2022-08-19T03:09:31.696Z,19.722222222222285
2022-08-19T03:10:31.707Z,19.722222222222285
2022-08-19T03:11:31.822Z,19.722222222222285
2022-08-19T03:12:31.790Z,19.611111111111143
2022-08-19T03:13:31.689Z,19.611111111111143
2022-08-19T03:14:31.832Z,19.611111111111143
2022-08-19T03:15:31.662Z,19.611111111111143
2022-08-19T03:16:33.219Z,19.611111111111143
2022-08-19T03:17:31.824Z,19.611111111111143
2022-08-19T03:18:31.872Z,19.611111111111143
2022-08-19T03:19:31.814Z,19.611111111111143
2022-08-19T03:20:31.832Z,19.611111111111143
2022-08-19T03:21:31.754Z,19.611111111111143
2022-08-19T03:22:31.701Z,19.611111111111143
2022-08-19T03:23:31.780Z,19.611111111111143
2022-08-19T03:24:31.860Z,19.611111111111143
2022-08-19T03:25:31.704Z,19.611111111111143
2022-08-19T03:26:31.793Z,19.5
2022-08-19T03:27:34.346Z,19.5
2022-08-19T03:28:31.755Z,19.5
2022-08-19T03:29:31.854Z,19.5
2022-08-19T03:30:31.663Z,19.5
2022-08-19T03:31:43.351Z,19.5
2022-08-19T03:32:33.095Z,19.5
2022-08-19T03:33:31.660Z,19.5
2022-08-19T03:34:31.700Z,19.5
2022-08-19T03:35:31.865Z,19.5
2022-08-19T03:36:31.654Z,19.5
2022-08-19T03:37:31.674Z,19.5
2022-08-19T03:38:31.666Z,19.5
2022-08-19T03:39:31.743Z,19.5
2022-08-19T03:40:31.827Z,19.5
2022-08-19T03:41:44.516Z,19.38888888888897
2022-08-19T03:42:48.691Z,19.38888888888897
2022-08-19T03:43:31.689Z,19.38888888888897
2022-08-19T03:44:31.704Z,19.38888888888897
2022-08-19T03:45:31.672Z,19.38888888888897
2022-08-19T03:46:31.705Z,19.5
2022-08-19T03:47:31.657Z,19.5
2022-08-19T03:48:31.645Z,19.5
2022-08-19T03:49:31.658Z,19.5
2022-08-19T03:50:31.650Z,19.5
2022-08-19T03:51:31.648Z,19.5
2022-08-19T03:52:31.657Z,19.5
2022-08-19T03:53:31.678Z,19.5
2022-08-19T03:54:31.658Z,19.5
2022-08-19T03:55:31.642Z,19.38888888888897
2022-08-19T03:56:31.670Z,19.38888888888897
2022-08-19T03:57:32.227Z,19.38888888888897
2022-08-19T03:58:31.663Z,19.38888888888897
2022-08-19T03:59:31.648Z,19.5
2022-08-19T04:00:31.693Z,19.5
2022-08-19T04:01:35.393Z,19.5
2022-08-19T04:02:31.676Z,19.5
2022-08-19T04:03:31.643Z,19.5
2022-08-19T04:04:31.893Z,19.5
2022-08-19T04:05:31.669Z,19.5
2022-08-19T04:06:31.744Z,19.5
2022-08-19T04:07:31.704Z,19.5
2022-08-19T04:08:31.663Z,19.611111111111143
2022-08-19T04:09:31.640Z,19.611111111111143
2022-08-19T04:10:31.643Z,19.611111111111143
2022-08-19T04:11:42.917Z,19.5
2022-08-19T04:12:31.803Z,19.5
2022-08-19T04:13:31.662Z,19.5
2022-08-19T04:14:31.674Z,19.5
2022-08-19T04:15:31.676Z,19.5
2022-08-19T04:16:35.318Z,19.5
2022-08-19T04:17:31.677Z,19.5
2022-08-19T04:18:36.269Z,19.5
2022-08-19T04:19:31.646Z,19.38888888888897
2022-08-19T04:20:31.714Z,19.38888888888897
2022-08-19T04:21:31.653Z,19.38888888888897
2022-08-19T04:22:31.790Z,19.38888888888897
2022-08-19T04:23:31.742Z,19.38888888888897
2022-08-19T04:24:31.655Z,19.38888888888897
2022-08-19T04:25:31.653Z,19.38888888888897
2022-08-19T04:26:31.661Z,19.38888888888897
2022-08-19T04:27:31.668Z,19.5
2022-08-19T04:28:31.701Z,19.5
2022-08-19T04:29:31.657Z,19.5
2022-08-19T04:30:31.675Z,19.5
2022-08-19T04:31:31.792Z,19.5
2022-08-19T04:32:31.667Z,19.5
2022-08-19T04:33:31.644Z,19.5
2022-08-19T04:34:31.737Z,19.5
2022-08-19T04:35:31.665Z,19.611111111111143
2022-08-19T04:36:31.710Z,19.5
2022-08-19T04:37:35.294Z,19.5
2022-08-19T04:38:31.663Z,19.5
2022-08-19T04:39:31.700Z,19.5
2022-08-19T04:40:31.672Z,19.5
2022-08-19T04:41:31.645Z,19.5
2022-08-19T04:42:31.661Z,19.5
2022-08-19T04:43:31.740Z,19.5
2022-08-19T04:44:33.315Z,19.5
2022-08-19T04:45:38.811Z,19.5
2022-08-19T04:46:40.077Z,19.5
2022-08-19T04:47:48.016Z,19.5
2022-08-19T04:48:31.709Z,19.5
2022-08-19T04:49:31.613Z,19.5
2022-08-19T04:50:31.677Z,19.611111111111143
2022-08-19T04:51:31.686Z,19.611111111111143
2022-08-19T04:52:31.668Z,19.611111111111143
2022-08-19T04:53:37.596Z,19.722222222222285
2022-08-19T04:54:38.794Z,19.722222222222285
2022-08-19T04:55:34.359Z,19.722222222222285
2022-08-19T04:56:31.648Z,19.722222222222285
2022-08-19T04:57:31.779Z,19.722222222222285
2022-08-19T04:58:31.640Z,19.722222222222285
2022-08-19T04:59:31.761Z,19.722222222222285
2022-08-19T05:00:31.662Z,19.722222222222285
2022-08-19T05:01:31.711Z,19.722222222222285
2022-08-19T05:02:31.670Z,19.722222222222285
2022-08-19T05:03:31.648Z,19.722222222222285
2022-08-19T05:04:31.674Z,19.722222222222285
2022-08-19T05:05:31.634Z,19.722222222222285
2022-08-19T05:06:31.650Z,19.722222222222285
2022-08-19T05:07:31.649Z,19.77777777777783
2022-08-19T05:08:31.814Z,19.77777777777783
2022-08-19T05:09:52.563Z,19.77777777777783
2022-08-19T05:10:31.700Z,19.888888888888914
2022-08-19T05:11:31.665Z,19.888888888888914
2022-08-19T05:12:31.676Z,19.888888888888914
2022-08-19T05:13:31.654Z,19.888888888888914
2022-08-19T05:14:31.702Z,19.888888888888914
2022-08-19T05:15:31.746Z,19.888888888888914
2022-08-19T05:16:31.680Z,19.888888888888914
2022-08-19T05:17:37.550Z,19.888888888888914
2022-08-19T05:18:31.700Z,19.888888888888914
2022-08-19T05:19:31.707Z,19.888888888888914
2022-08-19T05:20:31.854Z,19.888888888888914
2022-08-19T05:21:31.607Z,19.888888888888914
2022-08-19T05:22:31.646Z,19.888888888888914
2022-08-19T05:23:31.620Z,19.888888888888914
2022-08-19T05:24:31.740Z,20.000000000000057
2022-08-19T05:25:31.681Z,20.000000000000057
2022-08-19T05:26:31.649Z,20.000000000000057
2022-08-19T05:27:31.663Z,20.000000000000057
2022-08-19T05:28:31.671Z,20.111111111111143
2022-08-19T05:29:33.488Z,20.222222222222285
2022-08-19T05:30:46.561Z,20.27777777777783
2022-08-19T05:31:31.668Z,20.27777777777783
2022-08-19T05:32:31.666Z,20.388888888888914
2022-08-19T05:33:31.639Z,20.500000000000057
2022-08-19T05:34:31.670Z,20.500000000000057
2022-08-19T05:35:34.729Z,20.611111111111143
2022-08-19T05:36:31.648Z,20.611111111111143
2022-08-19T05:37:31.641Z,20.722222222222285
2022-08-19T05:38:31.622Z,20.722222222222285
2022-08-19T05:39:31.878Z,20.722222222222285
2022-08-19T05:40:31.647Z,20.722222222222285
2022-08-19T05:41:31.810Z,21.000000000000057
2022-08-19T05:42:31.643Z,21.222222222222285
2022-08-19T05:43:31.667Z,21.27777777777783
2022-08-19T05:44:31.667Z,21.27777777777783
2022-08-19T05:45:31.660Z,21.27777777777783
2022-08-19T05:46:31.682Z,21.27777777777783
2022-08-19T05:47:31.770Z,21.38888888888897
2022-08-19T05:48:31.655Z,21.500000000000057
2022-08-19T05:49:31.674Z,21.500000000000057
2022-08-19T05:50:31.804Z,21.500000000000057
2022-08-19T05:51:31.813Z,21.88888888888897
2022-08-19T05:52:31.680Z,22.388888888888914
2022-08-19T05:53:31.666Z,22.388888888888914
2022-08-19T05:54:31.668Z,22.611111111111143
2022-08-19T05:55:31.666Z,22.77777777777783
2022-08-19T05:56:31.645Z,22.888888888888914
2022-08-19T05:57:31.670Z,22.888888888888914
2022-08-19T05:58:31.628Z,22.888888888888914
2022-08-19T05:59:31.658Z,23.000000000000057
2022-08-19T06:00:31.768Z,23.222222222222285
2022-08-19T06:01:31.676Z,23.222222222222285
2022-08-19T06:02:31.903Z,23.222222222222285
2022-08-19T06:03:31.673Z,23.27777777777783
2022-08-19T06:04:31.658Z,23.27777777777783
2022-08-19T06:05:31.659Z,23.388888888888914
2022-08-19T06:06:31.656Z,23.500000000000057
2022-08-19T06:07:31.674Z,23.500000000000057
2022-08-19T06:08:34.372Z,23.6111111111112
2022-08-19T06:09:31.671Z,23.6111111111112
2022-08-19T06:10:31.696Z,23.500000000000057
2022-08-19T06:11:31.661Z,23.500000000000057
2022-08-19T06:12:31.681Z,23.6111111111112
2022-08-19T06:13:35.180Z,23.88888888888897
2022-08-19T06:14:31.653Z,24.1111111111112
2022-08-19T06:15:31.660Z,24.22222222222223
2022-08-19T06:16:31.677Z,24.1111111111112
2022-08-19T06:17:32.411Z,24.000000000000057
2022-08-19T06:18:31.648Z,23.88888888888897
2022-08-19T06:19:31.642Z,23.88888888888897
2022-08-19T06:20:54.489Z,23.722222222222285
2022-08-19T06:21:31.722Z,23.388888888888914
2022-08-19T06:22:31.677Z,23.222222222222285
2022-08-19T06:23:31.649Z,23.000000000000057
2022-08-19T06:24:31.676Z,23.000000000000057
2022-08-19T06:25:31.676Z,23.000000000000057
2022-08-19T06:26:31.638Z,23.000000000000057
2022-08-19T06:27:31.730Z,23.000000000000057
2022-08-19T06:28:31.671Z,23.111111111111143
2022-08-19T06:29:31.673Z,23.111111111111143
2022-08-19T06:30:31.634Z,23.111111111111143
2022-08-19T06:31:31.637Z,23.111111111111143
2022-08-19T06:32:31.683Z,23.111111111111143
2022-08-19T06:33:31.656Z,23.222222222222285
2022-08-19T06:34:31.634Z,23.27777777777783
2022-08-19T06:35:31.807Z,23.27777777777783
2022-08-19T06:36:31.661Z,23.27777777777783
2022-08-19T06:37:31.669Z,23.222222222222285
2022-08-19T06:38:31.643Z,23.222222222222285
2022-08-19T06:39:31.737Z,23.27777777777783
2022-08-19T06:40:31.765Z,23.27777777777783
2022-08-19T06:41:31.668Z,23.27777777777783
2022-08-19T06:42:31.644Z,23.27777777777783
2022-08-19T06:43:31.671Z,23.388888888888914
2022-08-19T06:44:31.849Z,23.388888888888914
2022-08-19T06:45:34.599Z,23.388888888888914
2022-08-19T06:46:31.637Z,23.388888888888914
2022-08-19T06:47:31.656Z,23.388888888888914
2022-08-19T06:48:31.644Z,23.388888888888914
2022-08-19T06:49:31.662Z,23.388888888888914
2022-08-19T06:50:31.647Z,23.388888888888914
2022-08-19T06:52:31.631Z,23.500000000000057
2022-08-19T06:53:31.628Z,23.500000000000057
2022-08-19T06:54:31.634Z,23.500000000000057
2022-08-19T06:55:31.672Z,23.6111111111112
2022-08-19T06:56:31.633Z,23.6111111111112
2022-08-19T06:57:31.653Z,23.722222222222285
2022-08-19T06:58:31.631Z,23.722222222222285
2022-08-19T06:59:31.644Z,23.77777777777783
2022-08-19T07:01:31.659Z,23.88888888888897
2022-08-19T07:02:31.617Z,23.88888888888897
2022-08-19T07:03:31.650Z,23.88888888888897
2022-08-19T07:04:31.682Z,23.88888888888897
2022-08-19T07:05:31.687Z,23.88888888888897
2022-08-19T07:06:44.141Z,24.000000000000057
2022-08-19T07:07:31.712Z,24.1111111111112
2022-08-19T07:08:31.749Z,24.1111111111112
2022-08-19T07:09:31.653Z,24.1111111111112
2022-08-19T07:10:31.644Z,24.1111111111112
2022-08-19T07:11:35.093Z,24.22222222222223
2022-08-19T07:12:31.632Z,24.27777777777783
2022-08-19T07:13:31.662Z,24.27777777777783
2022-08-19T07:14:31.612Z,24.27777777777783
2022-08-19T07:15:31.661Z,24.38888888888897
2022-08-19T07:16:31.621Z,24.5
2022-08-19T07:17:31.650Z,24.5
2022-08-19T07:18:31.628Z,24.611111111111143
2022-08-19T07:19:31.685Z,24.722222222222285
2022-08-19T07:20:31.646Z,24.77777777777783
2022-08-19T07:21:31.671Z,24.77777777777783
2022-08-19T07:22:31.718Z,24.722222222222285
2022-08-19T07:23:31.713Z,24.722222222222285
2022-08-19T07:24:33.536Z,24.722222222222285
2022-08-19T07:25:32.339Z,24.77777777777783
2022-08-19T07:26:31.632Z,24.888888888888914
2022-08-19T07:27:33.695Z,25.111111111111143
2022-08-19T07:28:31.650Z,25.111111111111143
2022-08-19T07:29:31.645Z,25.222222222222285
2022-08-19T07:30:31.689Z,25.222222222222285
2022-08-19T07:31:31.661Z,25.111111111111143
2022-08-19T07:32:31.637Z,25.111111111111143
2022-08-19T07:33:31.665Z,25.222222222222285
2022-08-19T07:34:31.653Z,25.27777777777783
2022-08-19T07:35:31.627Z,25.27777777777783
2022-08-19T07:36:31.644Z,25.27777777777783
2022-08-19T07:37:33.315Z,25.27777777777783
2022-08-19T07:38:31.643Z,25.27777777777783
2022-08-19T07:39:31.696Z,25.388888888888914
2022-08-19T07:40:31.693Z,25.500000000000057
2022-08-19T07:41:31.725Z,25.77777777777783
2022-08-19T07:42:31.622Z,26.000000000000057
2022-08-19T07:43:34.918Z,26.000000000000057
2022-08-19T07:44:31.709Z,26.222222222222285
2022-08-19T07:45:31.692Z,26.38888888888897
2022-08-19T07:46:31.641Z,26.500000000000057
2022-08-19T07:47:47.468Z,26.72222222222223
2022-08-19T07:48:31.741Z,26.88888888888897
2022-08-19T07:49:31.656Z,27.111111111111143
2022-08-19T07:50:31.601Z,27.222222222222285
2022-08-19T07:51:36.312Z,27.222222222222285
2022-08-19T07:52:31.658Z,27.111111111111143
2022-08-19T07:53:31.648Z,26.88888888888897
2022-08-19T07:54:31.645Z,26.88888888888897
2022-08-19T07:55:41.654Z,26.88888888888897
2022-08-19T07:56:31.652Z,26.77777777777783
2022-08-19T07:57:32.725Z,26.88888888888897
2022-08-19T07:58:32.553Z,26.88888888888897
2022-08-19T07:59:36.519Z,26.88888888888897
2022-08-19T08:00:40.568Z,26.88888888888897
2022-08-19T08:01:44.587Z,27
2022-08-19T08:02:48.640Z,27.222222222222285
2022-08-19T08:03:52.533Z,27.222222222222285
2022-08-19T08:04:56.523Z,27.222222222222285
2022-08-19T08:06:00.520Z,27.111111111111143
2022-08-19T08:07:04.809Z,27.111111111111143
2022-08-19T08:08:08.524Z,27.111111111111143
2022-08-19T08:09:12.655Z,27.222222222222285
2022-08-19T08:10:21.363Z,27.222222222222285
2022-08-19T08:11:20.865Z,27.27777777777783
2022-08-19T08:12:34.090Z,27.388888888888914
2022-08-19T08:13:28.927Z,27.500000000000057
2022-08-19T08:14:35.254Z,27.500000000000057
2022-08-19T08:15:31.658Z,27.388888888888914
2022-08-19T08:16:31.659Z,27.388888888888914
2022-08-19T08:17:48.644Z,27.388888888888914
2022-08-19T08:18:31.691Z,27.388888888888914
2022-08-19T08:19:31.650Z,27.388888888888914
2022-08-19T08:20:31.638Z,27.27777777777783
2022-08-19T08:21:31.749Z,27.388888888888914
2022-08-19T08:22:31.651Z,27.500000000000057
2022-08-19T08:23:31.583Z,27.722222222222285
2022-08-19T08:24:31.740Z,27.77777777777783
2022-08-19T08:25:32.325Z,27.888888888888914
2022-08-19T08:26:31.647Z,28.000000000000057
2022-08-19T08:27:31.627Z,28.111111111111143
2022-08-19T08:28:31.655Z,28.111111111111143
2022-08-19T08:29:34.533Z,28.111111111111143
2022-08-19T08:30:32.857Z,28.000000000000057
2022-08-19T08:31:31.634Z,28.000000000000057
2022-08-19T08:32:31.660Z,28.000000000000057
2022-08-19T08:33:34.235Z,28.222222222222285
2022-08-19T08:34:31.648Z,28.222222222222285
2022-08-19T08:35:31.625Z,28.27777777777783
2022-08-19T08:36:31.650Z,28.27777777777783
2022-08-19T08:37:31.624Z,28.222222222222285
2022-08-19T08:38:36.939Z,28.111111111111143
2022-08-19T08:39:31.683Z,28.000000000000057
2022-08-19T08:40:31.641Z,28.000000000000057
2022-08-19T08:41:31.635Z,28.000000000000057
2022-08-19T08:42:31.645Z,28.111111111111143
2022-08-19T08:43:32.389Z,28.222222222222285
2022-08-19T08:44:31.641Z,28.222222222222285
2022-08-19T08:45:32.927Z,28.388888888888914
2022-08-19T08:46:32.613Z,28.388888888888914
2022-08-19T08:47:31.625Z,28.500000000000057
2022-08-19T08:48:31.634Z,28.500000000000057
2022-08-19T08:49:31.768Z,28.500000000000057
2022-08-19T08:50:31.631Z,28.500000000000057
2022-08-19T08:51:34.967Z,28.500000000000057
2022-08-19T08:52:32.031Z,28.500000000000057
2022-08-19T08:53:34.422Z,28.27777777777783
2022-08-19T08:54:31.624Z,28.27777777777783
2022-08-19T08:55:36.723Z,28.222222222222285
2022-08-19T08:57:38.903Z,28.27777777777783
2022-08-19T08:58:31.641Z,28.27777777777783
2022-08-19T08:59:31.618Z,28.222222222222285
2022-08-19T09:00:31.645Z,27.888888888888914
2022-08-19T09:01:31.713Z,27.888888888888914
2022-08-19T09:02:31.657Z,28.000000000000057
2022-08-19T09:03:31.835Z,28.222222222222285
2022-08-19T09:04:31.639Z,28.222222222222285
2022-08-19T09:05:41.433Z,28.222222222222285
2022-08-19T09:06:31.690Z,28.27777777777783
2022-08-19T09:07:35.442Z,28.27777777777783
2022-08-19T09:08:31.648Z,28.500000000000057
2022-08-19T09:09:31.662Z,28.6111111111112
2022-08-19T09:10:31.626Z,28.6111111111112
2022-08-19T09:11:42.527Z,28.6111111111112
2022-08-19T09:12:31.652Z,28.500000000000057
2022-08-19T09:13:34.713Z,28.388888888888914
2022-08-19T09:14:49.671Z,28.500000000000057
2022-08-19T09:15:33.508Z,28.722222222222285
2022-08-19T09:16:31.655Z,28.77777777777783
2022-08-19T09:17:32.175Z,28.88888888888897
2022-08-19T09:18:31.693Z,28.88888888888897
2022-08-19T09:19:31.612Z,28.88888888888897
2022-08-19T09:20:31.634Z,29.1111111111112
2022-08-19T09:21:33.320Z,29.1111111111112
2022-08-19T09:22:31.633Z,29.1111111111112
2022-08-19T09:23:31.634Z,29.1111111111112
2022-08-19T09:24:31.633Z,29.1111111111112
2022-08-19T09:25:31.620Z,29.1111111111112
2022-08-19T09:26:47.472Z,29.22222222222223
2022-08-19T09:27:41.706Z,29.22222222222223
2022-08-19T09:28:31.630Z,29.22222222222223
2022-08-19T09:29:31.616Z,29.1111111111112
2022-08-19T09:30:31.637Z,29.1111111111112
2022-08-19T09:31:31.687Z,29.1111111111112
2022-08-19T09:32:31.640Z,29.1111111111112
2022-08-19T09:33:31.614Z,28.77777777777783
2022-08-19T09:34:31.713Z,28.77777777777783
2022-08-19T09:35:31.616Z,28.88888888888897
2022-08-19T09:36:35.304Z,28.88888888888897